sensor_id;sensor_type;location;lat;lon;timestamp;P1;durP1;ratioP1;P2;durP2;ratioP2
8580;SDS011;4328;48.622;9.230;2023-03-05T00:01:32;30.83;;;18.03;;
8580;SDS011;4328;48.622;9.230;2023-03-05T00:03:59;34.47;;;21.00;;
8580;SDS011;4328;48.622;9.230;2023-03-05T00:06:26;28.80;;;17.67;;
8580;SDS011;4328;48.622;9.230;2023-03-05T00:08:53;30.00;;;18.37;;
8580;SDS011;4328;48.622;9.230;2023-03-05T00:11:24;29.80;;;18.00;;
8580;SDS011;4328;48.622;9.230;2023-03-05T00:13:52;29.30;;;18.00;;
8580;SDS011;4328;48.622;9.230;2023-03-05T00:16:18;28.83;;;18.30;;
8580;SDS011;4328;48.622;9.230;2023-03-05T00:18:45;29.63;;;16.93;;
8580;SDS011;4328;48.622;9.230;2023-03-05T00:21:17;27.90;;;17.10;;
8580;SDS011;4328;48.622;9.230;2023-03-05T00:23:44;32.63;;;18.40;;
8580;SDS011;4328;48.622;9.230;2023-03-05T00:26:10;31.57;;;17.27;;
8580;SDS011;4328;48.622;9.230;2023-03-05T00:28:38;28.57;;;16.60;;
8580;SDS011;4328;48.622;9.230;2023-03-05T00:31:05;27.53;;;16.97;;
8580;SDS011;4328;48.622;9.230;2023-03-05T00:33:31;29.63;;;17.27;;
8580;SDS011;4328;48.622;9.230;2023-03-05T00:35:57;29.90;;;18.07;;
8580;SDS011;4328;48.622;9.230;2023-03-05T00:38:26;29.53;;;16.70;;
8580;SDS011;4328;48.622;9.230;2023-03-05T00:40:52;28.83;;;17.37;;
8580;SDS011;4328;48.622;9.230;2023-03-05T00:43:19;29.47;;;16.87;;
8580;SDS011;4328;48.622;9.230;2023-03-05T00:45:47;29.07;;;17.30;;
8580;SDS011;4328;48.622;9.230;2023-03-05T00:48:13;33.40;;;17.17;;
8580;SDS011;4328;48.622;9.230;2023-03-05T00:50:40;31.40;;;18.03;;
8580;SDS011;4328;48.622;9.230;2023-03-05T00:53:06;29.20;;;16.77;;
8580;SDS011;4328;48.622;9.230;2023-03-05T00:55:33;28.87;;;17.10;;
8580;SDS011;4328;48.622;9.230;2023-03-05T00:58:00;26.53;;;16.90;;
8580;SDS011;4328;48.622;9.230;2023-03-05T01:00:26;33.83;;;17.07;;
8580;SDS011;4328;48.622;9.230;2023-03-05T01:02:54;30.07;;;19.00;;
8580;SDS011;4328;48.622;9.230;2023-03-05T01:05:21;32.17;;;18.17;;
8580;SDS011;4328;48.622;9.230;2023-03-05T01:07:50;27.17;;;16.73;;
8580;SDS011;4328;48.622;9.230;2023-03-05T01:10:17;33.70;;;19.00;;
8580;SDS011;4328;48.622;9.230;2023-03-05T01:12:43;28.80;;;17.67;;
8580;SDS011;4328;48.622;9.230;2023-03-05T01:15:10;30.93;;;17.17;;
8580;SDS011;4328;48.622;9.230;2023-03-05T01:17:37;28.00;;;17.20;;
8580;SDS011;4328;48.622;9.230;2023-03-05T01:20:05;30.90;;;17.60;;
8580;SDS011;4328;48.622;9.230;2023-03-05T01:22:32;30.47;;;18.37;;
8580;SDS011;4328;48.622;9.230;2023-03-05T01:24:59;27.27;;;17.27;;
8580;SDS011;4328;48.622;9.230;2023-03-05T01:27:26;31.47;;;19.00;;
8580;SDS011;4328;48.622;9.230;2023-03-05T01:29:52;30.47;;;18.70;;
8580;SDS011;4328;48.622;9.230;2023-03-05T01:32:19;28.23;;;18.00;;
8580;SDS011;4328;48.622;9.230;2023-03-05T01:34:45;29.50;;;18.70;;
8580;SDS011;4328;48.622;9.230;2023-03-05T01:37:13;27.77;;;17.27;;
8580;SDS011;4328;48.622;9.230;2023-03-05T01:39:39;24.97;;;17.57;;
8580;SDS011;4328;48.622;9.230;2023-03-05T01:42:06;30.80;;;17.53;;
8580;SDS011;4328;48.622;9.230;2023-03-05T01:44:33;29.97;;;17.50;;
8580;SDS011;4328;48.622;9.230;2023-03-05T01:46:59;28.73;;;17.60;;
8580;SDS011;4328;48.622;9.230;2023-03-05T01:49:26;34.00;;;18.10;;
8580;SDS011;4328;48.622;9.230;2023-03-05T01:51:56;31.10;;;18.13;;
8580;SDS011;4328;48.622;9.230;2023-03-05T01:54:25;31.83;;;17.40;;
8580;SDS011;4328;48.622;9.230;2023-03-05T01:56:52;31.33;;;17.27;;
8580;SDS011;4328;48.622;9.230;2023-03-05T01:59:21;28.70;;;17.97;;
8580;SDS011;4328;48.622;9.230;2023-03-05T02:01:49;28.73;;;17.83;;
8580;SDS011;4328;48.622;9.230;2023-03-05T02:04:17;30.93;;;18.00;;
8580;SDS011;4328;48.622;9.230;2023-03-05T02:06:44;29.43;;;18.47;;
8580;SDS011;4328;48.622;9.230;2023-03-05T02:09:11;28.53;;;18.70;;
8580;SDS011;4328;48.622;9.230;2023-03-05T02:11:39;29.80;;;17.40;;
8580;SDS011;4328;48.622;9.230;2023-03-05T02:14:06;28.07;;;17.33;;
8580;SDS011;4328;48.622;9.230;2023-03-05T02:16:33;32.80;;;18.47;;
8580;SDS011;4328;48.622;9.230;2023-03-05T02:19:01;31.37;;;18.30;;
8580;SDS011;4328;48.622;9.230;2023-03-05T02:21:35;28.37;;;17.97;;
8580;SDS011;4328;48.622;9.230;2023-03-05T02:24:01;32.53;;;18.33;;
8580;SDS011;4328;48.622;9.230;2023-03-05T02:26:28;29.37;;;17.53;;
8580;SDS011;4328;48.622;9.230;2023-03-05T02:28:54;30.77;;;17.87;;
8580;SDS011;4328;48.622;9.230;2023-03-05T02:31:22;29.27;;;18.50;;
8580;SDS011;4328;48.622;9.230;2023-03-05T02:33:49;29.10;;;17.63;;
8580;SDS011;4328;48.622;9.230;2023-03-05T02:36:16;29.57;;;18.30;;
8580;SDS011;4328;48.622;9.230;2023-03-05T02:38:45;33.50;;;17.80;;
8580;SDS011;4328;48.622;9.230;2023-03-05T02:41:12;27.50;;;18.20;;
8580;SDS011;4328;48.622;9.230;2023-03-05T02:43:40;31.27;;;17.90;;
8580;SDS011;4328;48.622;9.230;2023-03-05T02:46:06;30.60;;;17.97;;
8580;SDS011;4328;48.622;9.230;2023-03-05T02:48:33;26.87;;;16.97;;
8580;SDS011;4328;48.622;9.230;2023-03-05T02:51:00;27.27;;;16.67;;
8580;SDS011;4328;48.622;9.230;2023-03-05T02:53:27;32.43;;;16.60;;
8580;SDS011;4328;48.622;9.230;2023-03-05T02:55:55;30.43;;;16.97;;
8580;SDS011;4328;48.622;9.230;2023-03-05T02:58:21;28.93;;;16.47;;
8580;SDS011;4328;48.622;9.230;2023-03-05T03:00:48;27.90;;;16.23;;
8580;SDS011;4328;48.622;9.230;2023-03-05T03:03:14;30.40;;;17.73;;
8580;SDS011;4328;48.622;9.230;2023-03-05T03:05:41;27.77;;;16.47;;
8580;SDS011;4328;48.622;9.230;2023-03-05T03:08:07;28.37;;;15.87;;
8580;SDS011;4328;48.622;9.230;2023-03-05T03:10:34;29.33;;;16.07;;
8580;SDS011;4328;48.622;9.230;2023-03-05T03:13:02;27.87;;;16.60;;
8580;SDS011;4328;48.622;9.230;2023-03-05T03:15:29;27.73;;;17.90;;
8580;SDS011;4328;48.622;9.230;2023-03-05T03:17:55;27.77;;;16.03;;
8580;SDS011;4328;48.622;9.230;2023-03-05T03:20:22;27.00;;;15.50;;
8580;SDS011;4328;48.622;9.230;2023-03-05T03:22:48;26.33;;;15.67;;
8580;SDS011;4328;48.622;9.230;2023-03-05T03:25:15;26.83;;;16.57;;
8580;SDS011;4328;48.622;9.230;2023-03-05T03:27:42;26.73;;;17.20;;
8580;SDS011;4328;48.622;9.230;2023-03-05T03:30:11;27.40;;;16.23;;
8580;SDS011;4328;48.622;9.230;2023-03-05T03:32:38;29.17;;;17.47;;
8580;SDS011;4328;48.622;9.230;2023-03-05T03:35:05;29.77;;;17.83;;
8580;SDS011;4328;48.622;9.230;2023-03-05T03:37:32;31.00;;;17.57;;
8580;SDS011;4328;48.622;9.230;2023-03-05T03:39:58;30.50;;;17.43;;
8580;SDS011;4328;48.622;9.230;2023-03-05T03:42:25;28.87;;;16.77;;
8580;SDS011;4328;48.622;9.230;2023-03-05T03:44:51;30.80;;;16.47;;
8580;SDS011;4328;48.622;9.230;2023-03-05T03:47:19;29.03;;;17.63;;
8580;SDS011;4328;48.622;9.230;2023-03-05T03:49:45;28.50;;;18.33;;
8580;SDS011;4328;48.622;9.230;2023-03-05T03:52:12;27.03;;;17.00;;
8580;SDS011;4328;48.622;9.230;2023-03-05T03:54:38;26.47;;;17.00;;
8580;SDS011;4328;48.622;9.230;2023-03-05T03:57:05;27.03;;;17.00;;
8580;SDS011;4328;48.622;9.230;2023-03-05T03:59:31;30.17;;;17.23;;
8580;SDS011;4328;48.622;9.230;2023-03-05T04:01:58;31.77;;;17.13;;
8580;SDS011;4328;48.622;9.230;2023-03-05T04:04:26;32.43;;;17.57;;
8580;SDS011;4328;48.622;9.230;2023-03-05T04:06:54;30.10;;;17.20;;
8580;SDS011;4328;48.622;9.230;2023-03-05T04:09:20;30.40;;;17.80;;
8580;SDS011;4328;48.622;9.230;2023-03-05T04:11:47;28.47;;;17.17;;
8580;SDS011;4328;48.622;9.230;2023-03-05T04:14:13;32.40;;;17.20;;
8580;SDS011;4328;48.622;9.230;2023-03-05T04:16:40;27.77;;;17.23;;
8580;SDS011;4328;48.622;9.230;2023-03-05T04:19:06;32.10;;;17.73;;
8580;SDS011;4328;48.622;9.230;2023-03-05T04:21:34;28.30;;;17.30;;
8580;SDS011;4328;48.622;9.230;2023-03-05T04:24:01;33.50;;;16.60;;
8580;SDS011;4328;48.622;9.230;2023-03-05T04:26:27;28.77;;;17.60;;
8580;SDS011;4328;48.622;9.230;2023-03-05T04:28:54;30.73;;;18.33;;
8580;SDS011;4328;48.622;9.230;2023-03-05T04:31:20;28.80;;;18.30;;
8580;SDS011;4328;48.622;9.230;2023-03-05T04:33:47;26.57;;;16.70;;
8580;SDS011;4328;48.622;9.230;2023-03-05T04:36:14;26.30;;;16.33;;
8580;SDS011;4328;48.622;9.230;2023-03-05T04:38:42;26.73;;;16.80;;
8580;SDS011;4328;48.622;9.230;2023-03-05T04:41:08;26.40;;;16.40;;
8580;SDS011;4328;48.622;9.230;2023-03-05T04:43:35;26.60;;;16.30;;
8580;SDS011;4328;48.622;9.230;2023-03-05T04:46:01;25.53;;;15.63;;
8580;SDS011;4328;48.622;9.230;2023-03-05T04:48:28;26.00;;;16.93;;
8580;SDS011;4328;48.622;9.230;2023-03-05T04:50:54;29.13;;;18.00;;
8580;SDS011;4328;48.622;9.230;2023-03-05T04:53:22;27.20;;;18.10;;
8580;SDS011;4328;48.622;9.230;2023-03-05T04:55:52;32.07;;;18.33;;
8580;SDS011;4328;48.622;9.230;2023-03-05T04:58:19;28.80;;;17.27;;
8580;SDS011;4328;48.622;9.230;2023-03-05T05:00:45;29.20;;;17.30;;
8580;SDS011;4328;48.622;9.230;2023-03-05T05:03:12;27.13;;;16.63;;
8580;SDS011;4328;48.622;9.230;2023-03-05T05:05:38;29.03;;;16.97;;
8580;SDS011;4328;48.622;9.230;2023-03-05T05:08:05;31.10;;;18.17;;
8580;SDS011;4328;48.622;9.230;2023-03-05T05:10:31;29.77;;;17.33;;
8580;SDS011;4328;48.622;9.230;2023-03-05T05:12:59;34.57;;;18.87;;
8580;SDS011;4328;48.622;9.230;2023-03-05T05:15:26;28.40;;;18.30;;
8580;SDS011;4328;48.622;9.230;2023-03-05T05:17:52;27.80;;;17.80;;
8580;SDS011;4328;48.622;9.230;2023-03-05T05:20:19;28.43;;;17.13;;
8580;SDS011;4328;48.622;9.230;2023-03-05T05:22:45;26.90;;;16.70;;
8580;SDS011;4328;48.622;9.230;2023-03-05T05:25:12;31.40;;;17.50;;
8580;SDS011;4328;48.622;9.230;2023-03-05T05:27:39;28.97;;;17.67;;
8580;SDS011;4328;48.622;9.230;2023-03-05T05:30:08;27.70;;;17.23;;
8580;SDS011;4328;48.622;9.230;2023-03-05T05:32:34;29.47;;;18.30;;
8580;SDS011;4328;48.622;9.230;2023-03-05T05:35:01;25.17;;;16.43;;
8580;SDS011;4328;48.622;9.230;2023-03-05T05:37:28;29.87;;;16.77;;
8580;SDS011;4328;48.622;9.230;2023-03-05T05:39:54;28.57;;;17.77;;
8580;SDS011;4328;48.622;9.230;2023-03-05T05:42:22;29.63;;;17.87;;
8580;SDS011;4328;48.622;9.230;2023-03-05T05:44:49;31.63;;;18.47;;
8580;SDS011;4328;48.622;9.230;2023-03-05T05:47:17;29.70;;;16.73;;
8580;SDS011;4328;48.622;9.230;2023-03-05T05:49:43;28.10;;;17.43;;
8580;SDS011;4328;48.622;9.230;2023-03-05T05:52:10;26.80;;;16.50;;
8580;SDS011;4328;48.622;9.230;2023-03-05T05:54:37;29.87;;;16.77;;
8580;SDS011;4328;48.622;9.230;2023-03-05T05:57:03;30.53;;;16.57;;
8580;SDS011;4328;48.622;9.230;2023-03-05T05:59:30;28.83;;;17.40;;
8580;SDS011;4328;48.622;9.230;2023-03-05T06:01:56;31.33;;;17.70;;
8580;SDS011;4328;48.622;9.230;2023-03-05T06:04:25;28.90;;;17.47;;
8580;SDS011;4328;48.622;9.230;2023-03-05T06:06:51;28.23;;;16.97;;
8580;SDS011;4328;48.622;9.230;2023-03-05T06:09:18;28.47;;;16.67;;
8580;SDS011;4328;48.622;9.230;2023-03-05T06:11:44;31.93;;;16.77;;
8580;SDS011;4328;48.622;9.230;2023-03-05T06:14:11;29.80;;;18.17;;
8580;SDS011;4328;48.622;9.230;2023-03-05T06:16:38;29.30;;;16.77;;
8580;SDS011;4328;48.622;9.230;2023-03-05T06:19:05;30.70;;;17.80;;
8580;SDS011;4328;48.622;9.230;2023-03-05T06:21:33;27.83;;;17.07;;
8580;SDS011;4328;48.622;9.230;2023-03-05T06:23:59;24.90;;;17.40;;
8580;SDS011;4328;48.622;9.230;2023-03-05T06:26:26;29.87;;;17.70;;
8580;SDS011;4328;48.622;9.230;2023-03-05T06:28:52;28.90;;;16.90;;
8580;SDS011;4328;48.622;9.230;2023-03-05T06:31:19;29.27;;;16.83;;
8580;SDS011;4328;48.622;9.230;2023-03-05T06:33:46;27.93;;;17.17;;
8580;SDS011;4328;48.622;9.230;2023-03-05T06:36:13;32.93;;;18.73;;
8580;SDS011;4328;48.622;9.230;2023-03-05T06:38:41;29.67;;;17.60;;
8580;SDS011;4328;48.622;9.230;2023-03-05T06:41:09;28.87;;;17.27;;
8580;SDS011;4328;48.622;9.230;2023-03-05T06:43:37;31.30;;;17.17;;
8580;SDS011;4328;48.622;9.230;2023-03-05T06:46:04;30.23;;;17.17;;
8580;SDS011;4328;48.622;9.230;2023-03-05T06:48:31;31.80;;;16.87;;
8580;SDS011;4328;48.622;9.230;2023-03-05T06:50:58;28.63;;;16.20;;
8580;SDS011;4328;48.622;9.230;2023-03-05T06:53:24;24.93;;;15.87;;
8580;SDS011;4328;48.622;9.230;2023-03-05T06:55:52;29.80;;;18.13;;
8580;SDS011;4328;48.622;9.230;2023-03-05T06:58:19;30.77;;;17.30;;
8580;SDS011;4328;48.622;9.230;2023-03-05T07:00:46;28.63;;;17.93;;
8580;SDS011;4328;48.622;9.230;2023-03-05T07:03:12;27.73;;;16.20;;
8580;SDS011;4328;48.622;9.230;2023-03-05T07:05:39;26.13;;;17.13;;
8580;SDS011;4328;48.622;9.230;2023-03-05T07:08:06;29.20;;;17.50;;
8580;SDS011;4328;48.622;9.230;2023-03-05T07:10:36;28.23;;;16.90;;
8580;SDS011;4328;48.622;9.230;2023-03-05T07:13:04;28.50;;;16.53;;
8580;SDS011;4328;48.622;9.230;2023-03-05T07:15:30;25.97;;;15.43;;
8580;SDS011;4328;48.622;9.230;2023-03-05T07:17:56;27.87;;;16.40;;
8580;SDS011;4328;48.622;9.230;2023-03-05T07:20:23;27.30;;;17.40;;
8580;SDS011;4328;48.622;9.230;2023-03-05T07:22:49;29.80;;;17.70;;
8580;SDS011;4328;48.622;9.230;2023-03-05T07:25:16;28.47;;;16.67;;
8580;SDS011;4328;48.622;9.230;2023-03-05T07:27:45;29.70;;;16.97;;
8580;SDS011;4328;48.622;9.230;2023-03-05T07:30:13;25.87;;;16.97;;
8580;SDS011;4328;48.622;9.230;2023-03-05T07:32:40;28.57;;;16.43;;
8580;SDS011;4328;48.622;9.230;2023-03-05T07:35:07;29.10;;;17.13;;
8580;SDS011;4328;48.622;9.230;2023-03-05T07:37:33;30.80;;;16.77;;
8580;SDS011;4328;48.622;9.230;2023-03-05T07:40:00;29.37;;;17.60;;
8580;SDS011;4328;48.622;9.230;2023-03-05T07:42:26;31.37;;;17.40;;
8580;SDS011;4328;48.622;9.230;2023-03-05T07:44:53;28.43;;;17.03;;
8580;SDS011;4328;48.622;9.230;2023-03-05T07:47:21;28.53;;;17.50;;
8580;SDS011;4328;48.622;9.230;2023-03-05T07:49:48;25.70;;;16.07;;
8580;SDS011;4328;48.622;9.230;2023-03-05T07:52:15;31.60;;;18.27;;
8580;SDS011;4328;48.622;9.230;2023-03-05T07:54:41;29.03;;;17.17;;
8580;SDS011;4328;48.622;9.230;2023-03-05T07:57:09;31.47;;;18.50;;
8580;SDS011;4328;48.622;9.230;2023-03-05T07:59:36;30.50;;;17.20;;
8580;SDS011;4328;48.622;9.230;2023-03-05T08:02:03;26.80;;;17.30;;
8580;SDS011;4328;48.622;9.230;2023-03-05T08:04:31;26.07;;;16.77;;
8580;SDS011;4328;48.622;9.230;2023-03-05T08:06:57;28.27;;;17.07;;
8580;SDS011;4328;48.622;9.230;2023-03-05T08:09:24;30.67;;;17.00;;
8580;SDS011;4328;48.622;9.230;2023-03-05T08:11:51;26.80;;;17.33;;
8580;SDS011;4328;48.622;9.230;2023-03-05T08:14:17;26.97;;;17.23;;
8580;SDS011;4328;48.622;9.230;2023-03-05T08:16:43;30.20;;;17.40;;
8580;SDS011;4328;48.622;9.230;2023-03-05T08:19:10;30.77;;;18.33;;
8580;SDS011;4328;48.622;9.230;2023-03-05T08:21:38;29.80;;;17.40;;
8580;SDS011;4328;48.622;9.230;2023-03-05T08:24:05;27.57;;;16.93;;
8580;SDS011;4328;48.622;9.230;2023-03-05T08:26:33;27.87;;;17.73;;
8580;SDS011;4328;48.622;9.230;2023-03-05T08:28:59;27.53;;;16.93;;
8580;SDS011;4328;48.622;9.230;2023-03-05T08:31:26;30.17;;;17.10;;
8580;SDS011;4328;48.622;9.230;2023-03-05T08:33:54;24.57;;;16.77;;
8580;SDS011;4328;48.622;9.230;2023-03-05T08:36:21;27.33;;;16.63;;
8580;SDS011;4328;48.622;9.230;2023-03-05T08:38:49;27.70;;;16.93;;
8580;SDS011;4328;48.622;9.230;2023-03-05T08:41:16;26.57;;;17.27;;
8580;SDS011;4328;48.622;9.230;2023-03-05T08:43:42;31.63;;;17.40;;
8580;SDS011;4328;48.622;9.230;2023-03-05T08:46:09;43.00;;;33.60;;
8580;SDS011;4328;48.622;9.230;2023-03-05T08:48:35;33.73;;;22.07;;
8580;SDS011;4328;48.622;9.230;2023-03-05T08:51:05;28.53;;;17.97;;
8580;SDS011;4328;48.622;9.230;2023-03-05T08:53:32;30.33;;;17.87;;
8580;SDS011;4328;48.622;9.230;2023-03-05T08:56:00;26.97;;;19.00;;
8580;SDS011;4328;48.622;9.230;2023-03-05T08:58:26;27.70;;;16.60;;
8580;SDS011;4328;48.622;9.230;2023-03-05T09:00:52;27.00;;;17.07;;
8580;SDS011;4328;48.622;9.230;2023-03-05T09:03:19;23.47;;;15.53;;
8580;SDS011;4328;48.622;9.230;2023-03-05T09:05:45;24.77;;;15.73;;
8580;SDS011;4328;48.622;9.230;2023-03-05T09:08:12;25.67;;;16.30;;
8580;SDS011;4328;48.622;9.230;2023-03-05T09:10:39;28.57;;;16.03;;
8580;SDS011;4328;48.622;9.230;2023-03-05T09:13:07;27.43;;;19.73;;
8580;SDS011;4328;48.622;9.230;2023-03-05T09:15:34;28.13;;;17.67;;
8580;SDS011;4328;48.622;9.230;2023-03-05T09:18:00;27.00;;;17.00;;
8580;SDS011;4328;48.622;9.230;2023-03-05T09:20:26;29.63;;;17.30;;
8580;SDS011;4328;48.622;9.230;2023-03-05T09:22:53;26.50;;;16.93;;
8580;SDS011;4328;48.622;9.230;2023-03-05T09:25:19;27.83;;;17.03;;
8580;SDS011;4328;48.622;9.230;2023-03-05T09:27:46;27.30;;;16.00;;
8580;SDS011;4328;48.622;9.230;2023-03-05T09:30:14;23.87;;;15.37;;
8580;SDS011;4328;48.622;9.230;2023-03-05T09:32:41;28.33;;;19.60;;
8580;SDS011;4328;48.622;9.230;2023-03-05T09:35:08;23.23;;;14.63;;
8580;SDS011;4328;48.622;9.230;2023-03-05T09:37:34;21.27;;;13.20;;
8580;SDS011;4328;48.622;9.230;2023-03-05T09:40:01;22.23;;;13.17;;
8580;SDS011;4328;48.622;9.230;2023-03-05T09:42:29;16.43;;;12.47;;
8580;SDS011;4328;48.622;9.230;2023-03-05T09:45:02;19.87;;;13.07;;
8580;SDS011;4328;48.622;9.230;2023-03-05T09:47:45;18.37;;;12.20;;
8580;SDS011;4328;48.622;9.230;2023-03-05T09:50:16;17.70;;;12.27;;
8580;SDS011;4328;48.622;9.230;2023-03-05T09:52:49;21.40;;;13.17;;
8580;SDS011;4328;48.622;9.230;2023-03-05T09:55:19;19.20;;;13.60;;
8580;SDS011;4328;48.622;9.230;2023-03-05T09:57:48;21.57;;;13.17;;
8580;SDS011;4328;48.622;9.230;2023-03-05T10:00:20;19.03;;;13.13;;
8580;SDS011;4328;48.622;9.230;2023-03-05T10:02:50;19.23;;;12.30;;
8580;SDS011;4328;48.622;9.230;2023-03-05T10:05:21;20.50;;;14.07;;
8580;SDS011;4328;48.622;9.230;2023-03-05T10:07:50;19.00;;;12.97;;
8580;SDS011;4328;48.622;9.230;2023-03-05T10:10:19;17.80;;;12.60;;
8580;SDS011;4328;48.622;9.230;2023-03-05T10:12:49;21.03;;;12.93;;
8580;SDS011;4328;48.622;9.230;2023-03-05T10:15:19;18.23;;;12.80;;
8580;SDS011;4328;48.622;9.230;2023-03-05T10:17:56;22.23;;;13.97;;
8580;SDS011;4328;48.622;9.230;2023-03-05T10:20:33;25.37;;;18.17;;
8580;SDS011;4328;48.622;9.230;2023-03-05T10:23:03;22.50;;;15.30;;
8580;SDS011;4328;48.622;9.230;2023-03-05T10:25:33;21.77;;;13.00;;
8580;SDS011;4328;48.622;9.230;2023-03-05T10:28:08;20.97;;;14.00;;
8580;SDS011;4328;48.622;9.230;2023-03-05T10:30:41;19.70;;;13.30;;
8580;SDS011;4328;48.622;9.230;2023-03-05T10:33:17;19.73;;;13.50;;
8580;SDS011;4328;48.622;9.230;2023-03-05T10:35:53;19.27;;;12.30;;
8580;SDS011;4328;48.622;9.230;2023-03-05T10:38:32;18.57;;;12.70;;
8580;SDS011;4328;48.622;9.230;2023-03-05T10:41:06;17.50;;;13.17;;
8580;SDS011;4328;48.622;9.230;2023-03-05T10:43:34;20.10;;;12.97;;
8580;SDS011;4328;48.622;9.230;2023-03-05T10:46:02;20.27;;;12.57;;
8580;SDS011;4328;48.622;9.230;2023-03-05T10:48:32;17.90;;;14.20;;
8580;SDS011;4328;48.622;9.230;2023-03-05T10:51:02;19.30;;;15.30;;
8580;SDS011;4328;48.622;9.230;2023-03-05T10:53:30;17.37;;;12.50;;
8580;SDS011;4328;48.622;9.230;2023-03-05T10:55:59;18.53;;;13.07;;
8580;SDS011;4328;48.622;9.230;2023-03-05T10:58:26;15.17;;;11.80;;
8580;SDS011;4328;48.622;9.230;2023-03-05T11:01:00;18.97;;;12.23;;
8580;SDS011;4328;48.622;9.230;2023-03-05T11:03:36;17.53;;;12.77;;
8580;SDS011;4328;48.622;9.230;2023-03-05T11:06:10;17.63;;;12.10;;
8580;SDS011;4328;48.622;9.230;2023-03-05T11:08:37;20.87;;;12.60;;
8580;SDS011;4328;48.622;9.230;2023-03-05T11:11:11;18.53;;;12.60;;
8580;SDS011;4328;48.622;9.230;2023-03-05T11:13:40;18.90;;;12.20;;
8580;SDS011;4328;48.622;9.230;2023-03-05T11:16:13;16.33;;;12.53;;
8580;SDS011;4328;48.622;9.230;2023-03-05T11:18:42;33.83;;;22.77;;
8580;SDS011;4328;48.622;9.230;2023-03-05T11:21:11;26.70;;;18.40;;
8580;SDS011;4328;48.622;9.230;2023-03-05T11:23:42;19.60;;;13.47;;
8580;SDS011;4328;48.622;9.230;2023-03-05T11:26:16;20.97;;;13.20;;
8580;SDS011;4328;48.622;9.230;2023-03-05T11:28:54;20.13;;;12.73;;
8580;SDS011;4328;48.622;9.230;2023-03-05T11:31:21;22.60;;;12.67;;
8580;SDS011;4328;48.622;9.230;2023-03-05T11:33:57;19.03;;;12.37;;
8580;SDS011;4328;48.622;9.230;2023-03-05T11:36:24;17.77;;;11.97;;
8580;SDS011;4328;48.622;9.230;2023-03-05T11:38:52;18.40;;;12.07;;
8580;SDS011;4328;48.622;9.230;2023-03-05T11:41:22;19.07;;;11.60;;
8580;SDS011;4328;48.622;9.230;2023-03-05T11:43:49;17.17;;;12.33;;
8580;SDS011;4328;48.622;9.230;2023-03-05T11:46:16;17.90;;;13.23;;
8580;SDS011;4328;48.622;9.230;2023-03-05T11:48:43;18.83;;;12.47;;
8580;SDS011;4328;48.622;9.230;2023-03-05T11:51:14;18.67;;;11.90;;
8580;SDS011;4328;48.622;9.230;2023-03-05T11:53:43;19.80;;;12.27;;
8580;SDS011;4328;48.622;9.230;2023-03-05T11:56:12;20.47;;;11.93;;
8580;SDS011;4328;48.622;9.230;2023-03-05T11:58:42;17.27;;;12.30;;
8580;SDS011;4328;48.622;9.230;2023-03-05T12:01:13;18.40;;;12.07;;
8580;SDS011;4328;48.622;9.230;2023-03-05T12:03:40;21.17;;;14.47;;
8580;SDS011;4328;48.622;9.230;2023-03-05T12:06:09;19.13;;;12.37;;
8580;SDS011;4328;48.622;9.230;2023-03-05T12:08:41;17.53;;;12.63;;
8580;SDS011;4328;48.622;9.230;2023-03-05T12:11:11;20.80;;;12.47;;
8580;SDS011;4328;48.622;9.230;2023-03-05T12:13:40;20.50;;;14.00;;
8580;SDS011;4328;48.622;9.230;2023-03-05T12:16:11;19.17;;;12.13;;
8580;SDS011;4328;48.622;9.230;2023-03-05T12:18:42;17.07;;;12.57;;
8580;SDS011;4328;48.622;9.230;2023-03-05T12:21:13;20.93;;;12.93;;
8580;SDS011;4328;48.622;9.230;2023-03-05T12:23:46;16.80;;;12.00;;
8580;SDS011;4328;48.622;9.230;2023-03-05T12:26:12;23.80;;;12.97;;
8580;SDS011;4328;48.622;9.230;2023-03-05T12:28:55;18.67;;;12.57;;
8580;SDS011;4328;48.622;9.230;2023-03-05T12:31:26;17.03;;;12.70;;
8580;SDS011;4328;48.622;9.230;2023-03-05T12:33:52;20.00;;;12.77;;
8580;SDS011;4328;48.622;9.230;2023-03-05T12:36:31;18.93;;;12.23;;
8580;SDS011;4328;48.622;9.230;2023-03-05T12:38:59;18.87;;;12.20;;
8580;SDS011;4328;48.622;9.230;2023-03-05T12:44:13;18.70;;;12.40;;
8580;SDS011;4328;48.622;9.230;2023-03-05T12:46:42;17.70;;;12.37;;
8580;SDS011;4328;48.622;9.230;2023-03-05T12:49:27;19.90;;;12.57;;
8580;SDS011;4328;48.622;9.230;2023-03-05T12:51:54;17.37;;;13.07;;
8580;SDS011;4328;48.622;9.230;2023-03-05T12:54:23;23.30;;;13.43;;
8580;SDS011;4328;48.622;9.230;2023-03-05T12:56:51;17.83;;;12.10;;
8580;SDS011;4328;48.622;9.230;2023-03-05T12:59:19;17.97;;;12.50;;
8580;SDS011;4328;48.622;9.230;2023-03-05T13:01:48;18.93;;;12.33;;
8580;SDS011;4328;48.622;9.230;2023-03-05T13:04:16;19.23;;;12.27;;
8580;SDS011;4328;48.622;9.230;2023-03-05T13:06:45;18.00;;;13.03;;
8580;SDS011;4328;48.622;9.230;2023-03-05T13:09:14;16.23;;;11.80;;
8580;SDS011;4328;48.622;9.230;2023-03-05T13:11:43;16.97;;;12.67;;
8580;SDS011;4328;48.622;9.230;2023-03-05T13:14:24;19.97;;;12.57;;
8580;SDS011;4328;48.622;9.230;2023-03-05T13:16:50;18.87;;;11.70;;
8580;SDS011;4328;48.622;9.230;2023-03-05T13:19:17;17.17;;;11.90;;
8580;SDS011;4328;48.622;9.230;2023-03-05T13:21:43;20.80;;;12.53;;
8580;SDS011;4328;48.622;9.230;2023-03-05T13:24:14;19.03;;;12.80;;
8580;SDS011;4328;48.622;9.230;2023-03-05T13:26:42;20.03;;;13.07;;
8580;SDS011;4328;48.622;9.230;2023-03-05T13:29:10;16.90;;;13.20;;
8580;SDS011;4328;48.622;9.230;2023-03-05T13:31:40;19.43;;;12.73;;
8580;SDS011;4328;48.622;9.230;2023-03-05T13:34:07;18.13;;;12.23;;
8580;SDS011;4328;48.622;9.230;2023-03-05T13:36:35;18.17;;;12.77;;
8580;SDS011;4328;48.622;9.230;2023-03-05T13:39:02;17.53;;;13.73;;
8580;SDS011;4328;48.622;9.230;2023-03-05T13:41:30;18.43;;;13.43;;
8580;SDS011;4328;48.622;9.230;2023-03-05T13:43:59;18.70;;;13.33;;
8580;SDS011;4328;48.622;9.230;2023-03-05T13:46:26;21.63;;;13.83;;
8580;SDS011;4328;48.622;9.230;2023-03-05T13:48:53;20.30;;;12.53;;
8580;SDS011;4328;48.622;9.230;2023-03-05T13:51:19;19.00;;;12.60;;
8580;SDS011;4328;48.622;9.230;2023-03-05T13:53:46;16.03;;;12.67;;
8580;SDS011;4328;48.622;9.230;2023-03-05T13:56:14;18.40;;;13.03;;
8580;SDS011;4328;48.622;9.230;2023-03-05T13:58:41;17.77;;;12.50;;
8580;SDS011;4328;48.622;9.230;2023-03-05T14:01:13;16.87;;;11.93;;
8580;SDS011;4328;48.622;9.230;2023-03-05T14:03:40;16.57;;;13.03;;
8580;SDS011;4328;48.622;9.230;2023-03-05T14:06:07;16.23;;;12.83;;
8580;SDS011;4328;48.622;9.230;2023-03-05T14:08:34;15.97;;;12.33;;
8580;SDS011;4328;48.622;9.230;2023-03-05T14:11:10;19.10;;;13.13;;
8580;SDS011;4328;48.622;9.230;2023-03-05T14:13:37;18.97;;;13.37;;
8580;SDS011;4328;48.622;9.230;2023-03-05T14:16:04;20.23;;;14.03;;
8580;SDS011;4328;48.622;9.230;2023-03-05T14:18:32;18.27;;;12.53;;
8580;SDS011;4328;48.622;9.230;2023-03-05T14:21:00;21.80;;;12.97;;
8580;SDS011;4328;48.622;9.230;2023-03-05T14:23:32;20.97;;;13.37;;
8580;SDS011;4328;48.622;9.230;2023-03-05T14:26:22;21.40;;;12.87;;
8580;SDS011;4328;48.622;9.230;2023-03-05T14:28:50;16.70;;;12.03;;
8580;SDS011;4328;48.622;9.230;2023-03-05T14:31:16;18.93;;;13.50;;
8580;SDS011;4328;48.622;9.230;2023-03-05T14:33:44;20.37;;;13.97;;
8580;SDS011;4328;48.622;9.230;2023-03-05T14:36:11;18.40;;;12.57;;
8580;SDS011;4328;48.622;9.230;2023-03-05T14:38:39;20.20;;;13.63;;
8580;SDS011;4328;48.622;9.230;2023-03-05T14:41:19;17.77;;;12.93;;
8580;SDS011;4328;48.622;9.230;2023-03-05T14:43:46;19.50;;;12.77;;
8580;SDS011;4328;48.622;9.230;2023-03-05T14:46:13;17.37;;;12.20;;
8580;SDS011;4328;48.622;9.230;2023-03-05T14:48:39;18.40;;;12.30;;
8580;SDS011;4328;48.622;9.230;2023-03-05T14:51:08;17.53;;;13.00;;
8580;SDS011;4328;48.622;9.230;2023-03-05T14:53:36;19.57;;;13.00;;
8580;SDS011;4328;48.622;9.230;2023-03-05T14:56:05;18.57;;;12.80;;